createdAt,value
2023-05-11T00:00:45.408Z,100913.22
2023-05-11T00:03:13.507Z,100921.38
2023-05-11T00:05:43.295Z,100918.66
2023-05-11T00:08:11.290Z,100921.38
2023-05-11T00:10:39.503Z,100919.72
2023-05-11T00:13:07.544Z,100915.94
2023-05-11T00:15:35.668Z,100919.72
2023-05-11T00:18:03.532Z,100919.72
2023-05-11T00:20:31.984Z,100922.44
2023-05-11T00:23:01.532Z,100927.88
2023-05-11T00:25:29.395Z,100925.16
2023-05-11T00:27:57.307Z,100926.22
2023-05-11T00:30:25.862Z,100927.88
2023-05-11T00:32:53.968Z,100926.81
2023-05-11T00:35:22.230Z,100929.53
2023-05-11T00:37:50.177Z,100929.34
2023-05-11T00:40:19.646Z,100927.44
2023-05-11T00:42:47.756Z,100923.69
2023-05-11T00:45:15.640Z,100919.28
2023-05-11T00:47:43.658Z,100923.69
2023-05-11T00:50:12.304Z,100920.53
2023-05-11T00:52:40.245Z,100928.72
2023-05-11T00:55:09.077Z,100925.38
2023-05-11T00:57:39.193Z,100930.84
2023-05-11T01:00:10.099Z,100931.03
2023-05-11T01:02:38.177Z,100927.28
2023-05-11T01:05:06.787Z,100925.38
2023-05-11T01:07:38.763Z,100926.44
2023-05-11T01:10:10.509Z,100932.09
2023-05-11T01:12:44.396Z,100930.19
2023-05-11T01:15:13.097Z,100934.81
2023-05-11T01:17:45.836Z,100931.25
2023-05-11T01:20:17.899Z,100932.09
2023-05-11T01:23:12.136Z,100932.28
2023-05-11T01:25:51.547Z,100931.50
2023-05-11T01:28:31.552Z,100928.97
2023-05-11T01:31:01.722Z,100927.94
2023-05-11T01:33:32.573Z,100924.38
2023-05-11T01:36:05.185Z,100931.69
2023-05-11T01:38:34.293Z,100924.38
2023-05-11T01:41:02.586Z,100911.00
2023-05-11T01:43:30.522Z,100925.41
2023-05-11T01:46:01.391Z,100923.53
2023-05-11T01:48:30.838Z,100921.88
2023-05-11T01:51:01.461Z,100920.81
2023-05-11T01:53:29.738Z,100920.81
2023-05-11T01:55:57.621Z,100921.88
2023-05-11T01:58:25.628Z,100910.81
2023-05-11T02:00:55.191Z,100926.47
2023-05-11T02:03:24.663Z,100916.47
2023-05-11T02:05:52.705Z,100919.16
2023-05-11T02:08:20.944Z,100926.47
2023-05-11T02:10:49.522Z,100912.50
2023-05-11T02:13:17.490Z,100916.63
2023-05-11T02:15:45.389Z,100920.19
2023-05-11T02:18:15.642Z,100915.78
2023-05-11T02:20:46.156Z,100923.94
2023-05-11T02:23:14.122Z,100915.00
2023-05-11T02:25:42.088Z,100918.50
2023-05-11T02:28:10.329Z,100915.00
2023-05-11T02:31:45.595Z,100912.28
2023-05-11T02:34:20.894Z,100922.31
2023-05-11T02:36:50.659Z,100921.47
2023-05-11T02:39:21.789Z,100917.09
2023-05-11T02:41:51.126Z,100918.13
2023-05-11T02:44:21.075Z,100921.47
2023-05-11T02:46:49.041Z,100928.78
2023-05-11T02:49:17.083Z,100923.34
2023-05-11T02:51:45.169Z,100926.50
2023-05-11T02:54:14.756Z,100925.91
2023-05-11T02:56:42.790Z,100938.63
2023-05-11T02:59:10.688Z,100938.84
2023-05-11T03:01:39.908Z,100943.22
2023-05-11T03:04:08.319Z,100946.78
2023-05-11T03:06:36.597Z,100947.19
2023-05-11T03:09:04.686Z,100948.66
2023-05-11T03:11:34.028Z,100939.47
2023-05-11T03:14:02.776Z,100936.75
2023-05-11T03:16:31.152Z,100938.38
2023-05-11T03:18:59.570Z,100938.38
2023-05-11T03:21:27.576Z,100939.03
2023-05-11T03:23:55.868Z,100934.63
2023-05-11T03:26:23.813Z,100939.84
2023-05-11T03:28:53.143Z,100935.25
2023-05-11T03:31:21.426Z,100935.25
2023-05-11T03:33:49.442Z,100928.78
2023-05-11T03:36:17.738Z,100930.66
2023-05-11T03:38:46.270Z,100895.81
2023-05-11T03:41:14.618Z,100926.25
2023-05-11T03:43:43.395Z,100930.66
2023-05-11T03:46:12.856Z,100925.22
2023-05-11T03:48:41.177Z,100929.56
2023-05-11T03:51:09.504Z,100926.06
2023-05-11T03:53:37.408Z,100926.84
2023-05-11T03:56:08.169Z,100892.66
2023-05-11T03:58:39.727Z,100921.41
2023-05-11T04:01:08.339Z,100926.84
2023-05-11T04:03:37.783Z,100924.13
2023-05-11T04:06:06.311Z,100924.13
2023-05-11T04:08:34.790Z,100926.06
2023-05-11T04:11:02.711Z,100924.97
2023-05-11T04:13:30.681Z,100933.13
2023-05-11T04:15:58.604Z,100935.84
2023-05-11T04:18:26.521Z,100923.31
2023-05-11T04:20:55.866Z,100928.53
2023-05-11T04:23:23.772Z,100931.25
2023-05-11T04:25:54.419Z,100932.91
2023-05-11T04:28:23.918Z,100939.66
2023-05-11T04:30:54.846Z,100934.81
2023-05-11T04:33:22.834Z,100943.81
2023-05-11T04:35:51.812Z,100936.69
2023-05-11T04:38:21.568Z,100939.41
2023-05-11T04:40:50.605Z,100944.63
2023-05-11T04:43:19.859Z,100941.06
2023-05-11T04:45:50.862Z,100946.53
2023-05-11T04:48:20.907Z,100946.53
2023-05-11T04:50:49.026Z,100948.19
2023-05-11T04:53:17.056Z,100947.34
2023-05-11T04:55:46.347Z,100949.44
2023-05-11T04:58:14.599Z,100949.25
2023-05-11T05:00:42.873Z,100959.06
2023-05-11T05:03:10.979Z,100957.19
2023-05-11T05:05:38.965Z,100955.31
2023-05-11T05:08:07.479Z,100923.00
2023-05-11T05:10:35.779Z,100953.63
2023-05-11T05:13:06.733Z,100968.06
2023-05-11T05:15:34.634Z,100959.06
2023-05-11T05:18:04.687Z,100931.16
2023-05-11T05:20:33.015Z,100968.06
2023-05-11T05:23:01.344Z,100969.94
2023-05-11T05:25:29.790Z,100928.47
2023-05-11T05:28:11.871Z,100885.25
2023-05-11T05:30:40.378Z,100693.53
2023-05-11T05:33:08.887Z,100757.31
2023-05-11T05:35:37.188Z,100979.16
2023-05-11T05:38:06.207Z,100968.53
2023-05-11T05:40:37.708Z,100983.56
2023-05-11T05:43:05.831Z,100985.44
2023-05-11T05:45:35.236Z,100993.38
2023-05-11T05:48:06.186Z,100995.06
2023-05-11T05:50:34.589Z,100972.91
2023-05-11T05:53:02.774Z,101000.25
2023-05-11T05:55:30.982Z,100979.16
2023-05-11T05:57:59.775Z,100998.16
2023-05-11T06:00:28.243Z,101006.34
2023-05-11T06:02:57.956Z,100951.69
2023-05-11T06:05:26.625Z,100990.25
2023-05-11T06:08:09.051Z,101009.06
2023-05-11T06:10:38.944Z,101010.94
2023-05-11T06:13:08.771Z,100991.09
2023-05-11T06:15:37.265Z,101010.09
2023-05-11T06:18:07.313Z,100989.66
2023-05-11T06:20:35.621Z,100984.44
2023-05-11T06:23:06.160Z,101009.25
2023-05-11T06:25:35.514Z,100991.53
2023-05-11T06:28:03.940Z,101005.69
2023-05-11T06:30:32.022Z,100977.13
2023-05-11T06:33:00.242Z,100923.09
2023-05-11T06:35:30.380Z,101006.75
2023-05-11T06:37:59.412Z,100991.31
2023-05-11T06:40:27.883Z,101000.50
2023-05-11T06:42:56.341Z,101001.31
2023-05-11T06:45:24.613Z,100983.56
2023-05-11T06:47:53.256Z,100987.75
2023-05-11T06:50:21.630Z,100994.22
2023-05-11T06:52:51.171Z,101000.50
2023-05-11T06:55:19.086Z,101001.31
2023-05-11T06:57:47.478Z,101003.22
2023-05-11T07:00:16.562Z,101000.50
2023-05-11T07:02:44.633Z,100995.47
2023-05-11T07:05:12.995Z,101002.38
2023-05-11T07:07:40.911Z,100995.28
2023-05-11T07:10:11.733Z,100998.00
2023-05-11T07:12:39.631Z,101000.72
2023-05-11T07:15:10.477Z,100995.28
2023-05-11T07:17:38.497Z,100946.47
2023-05-11T07:20:08.009Z,101001.53
2023-05-11T07:22:35.928Z,101002.59
2023-05-11T07:25:04.660Z,101000.06
2023-05-11T07:27:34.892Z,101009.72
2023-05-11T07:30:04.064Z,101008.66
2023-05-11T07:32:32.001Z,101008.66
2023-05-11T07:35:00.222Z,101012.44
2023-05-11T07:37:30.418Z,101013.03
2023-05-11T07:39:58.579Z,101008.66
2023-05-11T07:42:26.529Z,101006.75
2023-05-11T07:44:55.893Z,101011.38
2023-05-11T07:47:24.900Z,101013.25
2023-05-11T07:49:53.461Z,101010.31
2023-05-11T07:52:21.397Z,100994.47
2023-05-11T07:54:49.279Z,100999.66
2023-05-11T07:57:17.175Z,100972.13
2023-05-11T07:59:45.430Z,101015.75
2023-05-11T08:02:15.027Z,101005.94
2023-05-11T08:04:43.385Z,101011.13
2023-05-11T08:07:11.456Z,101011.13
2023-05-11T08:09:39.682Z,101011.13
2023-05-11T08:12:07.873Z,101011.13
2023-05-11T08:14:35.807Z,101013.88
2023-05-11T08:17:03.792Z,101011.97
2023-05-11T08:19:33.390Z,101012.19
2023-05-11T08:22:01.857Z,101013.88
2023-05-11T08:24:29.737Z,101016.59
2023-05-11T08:26:57.690Z,101022.84
2023-05-11T08:29:27.480Z,101017.41
2023-05-11T08:31:55.556Z,101009.47
2023-05-11T08:34:23.620Z,101013.88
2023-05-11T08:36:55.025Z,101019.31
2023-05-11T08:39:38.877Z,101024.75
2023-05-11T08:42:11.148Z,101024.75
2023-05-11T08:44:39.057Z,101023.69
2023-05-11T08:47:21.861Z,101022.03
2023-05-11T08:49:51.784Z,101019.31
2023-05-11T08:52:21.197Z,101028.31
2023-05-11T08:54:49.250Z,101023.91
2023-05-11T08:57:17.404Z,101023.91
2023-05-11T08:59:46.183Z,101024.75
2023-05-11T09:02:17.589Z,101027.47
2023-05-11T09:04:48.290Z,100993.44
2023-05-11T09:07:17.571Z,101022.03
2023-05-11T09:09:47.451Z,101029.97
2023-05-11T09:12:15.477Z,101022.84
2023-05-11T09:14:43.441Z,101023.69
2023-05-11T09:17:11.439Z,101020.97
2023-05-11T09:19:43.307Z,101029.13
2023-05-11T09:22:11.198Z,101024.53
2023-05-11T09:24:43.281Z,101026.41
2023-05-11T09:27:12.544Z,101025.59
2023-05-11T09:29:40.671Z,101013.66
2023-05-11T09:32:08.922Z,101022.66
2023-05-11T09:37:17.622Z,101004.09
2023-05-11T09:40:14.226Z,101018.88
2023-05-11T09:42:35.341Z,101013.66
2023-05-11T09:45:03.569Z,101013.66
2023-05-11T09:47:39.663Z,101024.53
2023-05-11T09:50:17.721Z,101022.84
2023-05-11T09:52:52.240Z,101019.94
2023-05-11T09:55:20.628Z,101022.66
2023-05-11T09:57:54.337Z,101025.38
2023-05-11T10:00:22.338Z,101024.53
2023-05-11T10:03:01.070Z,101022.66
2023-05-11T10:05:29.590Z,101018.25
2023-05-11T10:07:58.323Z,101021.81
2023-05-11T10:10:26.274Z,101031.66
2023-05-11T10:12:55.862Z,101024.53
2023-05-11T10:15:26.585Z,100990.13
2023-05-11T10:17:55.394Z,101028.09
2023-05-11T10:20:23.481Z,101019.31
2023-05-11T10:22:52.648Z,101015.53
2023-05-11T10:25:22.037Z,101004.66
2023-05-11T10:27:49.974Z,101010.09
2023-05-11T10:30:19.843Z,101008.22
2023-05-11T10:32:48.202Z,101010.09
2023-05-11T10:35:18.544Z,101000.91
2023-05-11T10:37:47.739Z,101007.38
2023-05-11T10:40:15.779Z,101005.28
2023-05-11T10:42:56.380Z,101009.88
2023-05-11T10:45:26.313Z,100973.78
2023-05-11T10:48:27.962Z,101003.41
2023-05-11T10:51:27.715Z,101013.44
2023-05-11T10:54:01.870Z,101007.00
2023-05-11T10:56:42.226Z,101006.94
2023-05-11T10:59:35.732Z,101013.22
2023-05-11T11:02:05.115Z,101013.22
2023-05-11T11:04:46.236Z,101008.59
2023-05-11T11:07:17.842Z,101008.59
2023-05-11T11:09:56.680Z,101012.16
2023-05-11T11:12:26.520Z,100970.25
2023-05-11T11:14:55.645Z,101003.16
2023-05-11T11:17:27.456Z,101004.22
2023-05-11T11:19:55.637Z,101005.88
2023-05-11T11:22:46.878Z,100999.59
2023-05-11T11:25:15.948Z,100990.59
2023-05-11T11:28:00.057Z,101000.44
2023-05-11T11:30:30.615Z,100990.59
2023-05-11T11:33:35.640Z,100989.81
2023-05-11T11:36:03.830Z,100976.44
2023-05-11T11:38:32.497Z,100994.16
2023-05-11T11:41:00.473Z,100986.84
2023-05-11T11:43:30.068Z,100978.69
2023-05-11T11:45:58.323Z,100986.63
2023-05-11T11:48:31.278Z,100980.16
2023-05-11T11:51:05.585Z,100990.19
2023-05-11T11:54:09.787Z,100985.81
2023-05-11T11:56:39.959Z,100984.97
2023-05-11T11:59:10.417Z,100977.63
2023-05-11T12:01:39.481Z,100956.56
2023-05-11T12:04:39.783Z,100973.88
2023-05-11T12:07:11.424Z,100979.31
2023-05-11T12:09:42.580Z,100967.88
2023-05-11T12:12:11.917Z,100978.25
2023-05-11T12:14:42.101Z,100974.91
2023-05-11T12:17:15.363Z,100976.38
2023-05-11T12:19:46.697Z,100983.72
2023-05-11T12:22:16.469Z,100983.72
2023-05-11T12:24:44.537Z,100947.38
2023-05-11T12:27:12.656Z,100977.44
2023-05-11T12:29:41.422Z,100972.81
2023-05-11T12:32:13.923Z,100967.38
2023-05-11T12:34:42.587Z,100969.03
2023-05-11T12:37:10.559Z,100965.50
2023-05-11T12:39:39.885Z,100961.09
2023-05-11T12:42:07.914Z,100958.16
2023-05-11T12:44:36.339Z,100953.78
2023-05-11T12:47:04.688Z,100955.44
2023-05-11T12:49:32.860Z,100956.50
2023-05-11T12:52:08.000Z,100957.34
2023-05-11T12:54:38.030Z,100957.34
2023-05-11T12:57:08.031Z,100946.66
2023-05-11T12:59:37.556Z,100947.50
2023-05-11T13:02:09.785Z,100945.63
2023-05-11T13:04:37.894Z,100946.47
2023-05-11T13:07:06.111Z,100938.13
2023-05-11T13:09:34.376Z,100946.47
2023-05-11T13:12:15.907Z,100946.47
2023-05-11T13:14:44.115Z,100936.38
2023-05-11T13:17:12.035Z,100940.78
2023-05-11T13:19:40.765Z,100938.06
2023-05-11T13:22:09.274Z,100941.63
2023-05-11T13:24:37.267Z,100942.28
2023-05-11T13:27:05.713Z,100943.50
2023-05-11T13:29:39.314Z,100939.94
2023-05-11T13:32:08.384Z,100933.66
2023-05-11T13:34:37.273Z,100938.06
2023-05-11T13:37:05.621Z,100937.22
2023-05-11T13:39:33.618Z,100936.16
2023-05-11T13:42:01.701Z,100932.41
2023-05-11T13:44:30.313Z,100928.00
2023-05-11T13:47:00.075Z,100933.44
2023-05-11T13:49:28.742Z,100899.66
2023-05-11T13:51:56.707Z,100927.19
2023-05-11T13:54:24.992Z,100882.56
2023-05-11T13:56:52.956Z,100928.00
2023-05-11T13:59:20.871Z,100922.56
2023-05-11T14:01:49.382Z,100919.84
2023-05-11T14:04:19.640Z,100920.91
2023-05-11T14:06:47.567Z,100923.63
2023-05-11T14:09:15.532Z,100920.06
2023-05-11T14:11:43.740Z,100925.50
2023-05-11T14:14:14.062Z,100915.47
2023-05-11T14:16:41.921Z,100929.06
2023-05-11T14:19:10.065Z,100920.91
2023-05-11T14:21:39.484Z,100919.00
2023-05-11T14:24:12.426Z,100913.63
2023-05-11T14:26:41.143Z,100923.88
2023-05-11T14:29:09.032Z,100929.31
2023-05-11T14:31:37.586Z,100919.25
2023-05-11T14:34:06.530Z,100872.66
2023-05-11T14:36:34.885Z,100934.50
2023-05-11T14:39:04.493Z,100930.94
2023-05-11T14:41:32.407Z,100866.56
2023-05-11T14:44:00.619Z,100919.00
2023-05-11T14:46:28.670Z,100916.28
2023-05-11T14:48:56.644Z,100919.25
2023-05-11T14:51:24.519Z,100862.94
2023-05-11T14:53:53.226Z,100921.72
2023-05-11T14:56:23.854Z,100916.28
2023-05-11T14:58:51.769Z,100911.91
2023-05-11T15:01:20.303Z,100913.56
2023-05-11T15:03:48.421Z,100911.91
2023-05-11T15:06:21.024Z,100917.97
2023-05-11T15:08:49.029Z,100916.09
2023-05-11T15:11:17.193Z,100919.63
2023-05-11T15:13:48.764Z,100920.47
2023-05-11T15:16:16.738Z,100921.31
2023-05-11T15:18:44.715Z,100919.44
2023-05-11T15:21:12.927Z,100925.91
2023-05-11T15:23:40.795Z,100935.75
2023-05-11T15:26:09.217Z,100940.34
2023-05-11T15:28:37.156Z,100948.53
2023-05-11T15:31:06.718Z,100948.53
2023-05-11T15:33:34.672Z,100946.63
2023-05-11T15:36:02.707Z,100944.97
2023-05-11T15:38:30.977Z,100953.13
2023-05-11T15:40:59.250Z,100947.91
2023-05-11T15:43:27.188Z,100948.94
2023-05-11T15:45:55.390Z,100945.38
2023-05-11T15:48:24.745Z,100948.09
2023-05-11T15:50:53.058Z,100957.09
2023-05-11T15:53:20.984Z,100956.25
2023-05-11T15:55:50.901Z,100953.78
2023-05-11T15:58:18.899Z,100953.78
2023-05-11T16:00:47.189Z,100953.78
2023-05-11T16:03:15.249Z,100960.06
2023-05-11T16:05:44.937Z,100956.50
2023-05-11T16:08:13.110Z,100960.28
2023-05-11T16:10:41.568Z,100952.94
2023-05-11T16:13:09.751Z,100958.38
2023-05-11T16:15:37.789Z,100946.66
2023-05-11T16:18:06.024Z,100958.38
2023-05-11T16:20:34.399Z,100947.50
2023-05-11T16:23:04.187Z,100951.06
2023-05-11T16:25:32.155Z,100952.94
2023-05-11T16:28:00.164Z,100945.84
2023-05-11T16:30:28.466Z,100953.78
2023-05-11T16:32:56.569Z,100955.66
2023-05-11T16:35:24.515Z,100961.09
2023-05-11T16:37:52.549Z,100959.22
2023-05-11T16:40:22.490Z,100958.38
2023-05-11T16:42:50.482Z,100961.09
2023-05-11T16:45:18.392Z,100967.38
2023-05-11T16:47:46.648Z,100962.78
2023-05-11T16:50:16.234Z,100968.22
2023-05-11T16:52:44.728Z,100964.66
2023-05-11T16:55:12.729Z,100966.56
2023-05-11T16:57:42.025Z,100967.38
2023-05-11T17:02:48.806Z,100966.31
2023-05-11T17:05:17.970Z,100962.78
2023-05-11T17:07:46.776Z,100959.22
2023-05-11T17:10:14.956Z,100954.84
2023-05-11T17:12:44.241Z,100964.88
2023-05-11T17:15:12.601Z,100966.75
2023-05-11T17:17:41.226Z,100952.75
2023-05-11T17:20:10.610Z,100959.44
2023-05-11T17:22:38.809Z,100962.16
2023-05-11T17:25:07.575Z,100964.03
2023-05-11T17:27:36.281Z,100966.75
2023-05-11T17:30:09.208Z,100963.19
2023-05-11T17:32:37.662Z,100968.63
2023-05-11T17:35:07.339Z,100965.09
2023-05-11T17:37:35.248Z,100965.09
2023-05-11T17:40:04.057Z,100961.53
2023-05-11T17:42:31.995Z,100971.34
2023-05-11T17:44:59.902Z,100961.53
2023-05-11T17:47:29.306Z,100958.81
2023-05-11T17:49:57.576Z,100958.81
2023-05-11T17:52:25.831Z,100958.81
2023-05-11T17:54:53.787Z,100954.44
2023-05-11T17:57:23.369Z,100957.16
2023-05-11T17:59:51.604Z,100953.59
2023-05-11T18:02:19.566Z,100962.16
2023-05-11T18:04:48.919Z,100961.09
2023-05-11T18:07:17.213Z,100958.81
2023-05-11T18:09:45.278Z,100958.59
2023-05-11T18:12:13.172Z,100959.22
2023-05-11T18:14:41.238Z,100953.78
2023-05-11T18:17:09.252Z,100962.53
2023-05-11T18:19:38.353Z,100966.09
2023-05-11T18:22:07.840Z,100960.66
2023-05-11T18:24:35.809Z,100958.78
2023-05-11T18:27:03.862Z,100960.66
2023-05-11T18:29:34.319Z,100963.38
2023-05-11T18:32:02.310Z,100961.69
2023-05-11T18:34:30.262Z,100966.31
2023-05-11T18:36:58.151Z,100965.50
2023-05-11T18:39:28.582Z,100974.47
2023-05-11T18:41:56.440Z,100970.94
2023-05-11T18:44:28.206Z,100972.00
2023-05-11T18:46:59.615Z,100973.66
2023-05-11T18:49:28.598Z,100981.81
2023-05-11T18:51:58.284Z,100979.31
2023-05-11T18:54:32.353Z,100980.34
2023-05-11T18:57:01.097Z,100989.34
2023-05-11T18:59:29.413Z,100987.09
2023-05-11T19:01:57.665Z,100987.69
2023-05-11T19:04:27.012Z,100992.91
2023-05-11T19:06:55.707Z,100995.63
2023-05-11T19:09:24.235Z,100993.75
2023-05-11T19:11:53.612Z,100966.41
2023-05-11T19:14:21.503Z,100999.19
2023-05-11T19:16:49.432Z,101005.47
2023-05-11T19:19:17.417Z,101002.75
2023-05-11T19:21:48.865Z,101013.63
2023-05-11T19:24:16.811Z,101001.91
2023-05-11T19:26:55.390Z,101008.41
2023-05-11T19:29:35.451Z,101004.63
2023-05-11T19:32:04.434Z,101002.97
2023-05-11T19:34:32.515Z,101013.84
2023-05-11T19:37:00.592Z,101009.22
2023-05-11T19:39:28.506Z,101020.72
2023-05-11T19:41:56.409Z,101015.28
2023-05-11T19:44:24.703Z,101021.13
2023-05-11T19:46:53.970Z,101024.47
2023-05-11T19:49:21.860Z,101010.84
2023-05-11T19:51:49.810Z,101038.91
2023-05-11T19:54:18.102Z,101019.00
2023-05-11T19:56:46.680Z,101024.47
2023-05-11T19:59:14.718Z,101025.53
2023-05-11T20:01:42.654Z,101024.69
2023-05-11T20:04:14.845Z,101028.25
2023-05-11T20:06:42.921Z,101027.63
2023-05-11T20:09:10.913Z,101025.94
2023-05-11T20:11:38.852Z,101025.94
2023-05-11T20:14:06.774Z,101025.94
2023-05-11T20:16:34.755Z,101025.34
2023-05-11T20:19:02.851Z,101023.44
2023-05-11T20:21:32.194Z,101028.88
2023-05-11T20:24:00.496Z,101025.34
2023-05-11T20:26:28.429Z,101028.06
2023-05-11T20:28:56.343Z,101022.63
2023-05-11T20:31:24.334Z,101031.84
2023-05-11T20:36:23.530Z,101020.94
2023-05-11T20:38:55.027Z,101027.44
2023-05-11T20:41:23.268Z,101015.50
2023-05-11T20:43:51.187Z,101028.28
2023-05-11T20:46:19.242Z,101022.00
2023-05-11T20:48:51.404Z,101013.00
2023-05-11T20:51:23.248Z,101017.59
2023-05-11T20:53:52.261Z,101018.44
2023-05-11T20:56:21.773Z,101013.84
2023-05-11T20:58:49.697Z,101011.31
2023-05-11T21:01:17.629Z,101012.16
2023-05-11T21:03:45.861Z,101011.31
2023-05-11T21:06:13.791Z,101009.44
2023-05-11T21:08:41.760Z,101009.44
2023-05-11T21:11:09.763Z,101004.00
2023-05-11T21:13:39.613Z,101006.72
2023-05-11T21:16:08.401Z,101009.44
2023-05-11T21:18:36.406Z,101004.00
2023-05-11T21:21:05.075Z,101011.31
2023-05-11T21:23:33.309Z,101001.28
2023-05-11T21:26:01.220Z,101010.28
2023-05-11T21:28:29.392Z,101005.28
2023-05-11T21:30:58.867Z,101004.84
2023-05-11T21:33:27.182Z,101004.84
2023-05-11T21:35:56.361Z,101005.69
2023-05-11T21:38:24.350Z,100994.78
2023-05-11T21:40:52.748Z,100935.78
2023-05-11T21:43:20.968Z,101005.69
2023-05-11T21:45:49.696Z,101005.88
2023-05-11T21:48:19.057Z,100993.34
2023-05-11T21:50:46.973Z,101004.00
2023-05-11T21:53:14.904Z,100998.78
2023-05-11T21:55:43.758Z,100999.59
2023-05-11T21:58:11.701Z,100913.44
2023-05-11T22:00:39.624Z,100996.88
2023-05-11T22:03:07.673Z,100990.59
2023-05-11T22:05:37.000Z,100997.97
2023-05-11T22:08:13.805Z,100988.13
2023-05-11T22:10:44.015Z,100986.25
2023-05-11T22:13:12.229Z,100981.84
2023-05-11T22:15:40.165Z,100981.66
2023-05-11T22:18:08.175Z,100975.41
2023-05-11T22:20:37.644Z,100987.28
2023-05-11T22:23:05.648Z,100989.19
2023-05-11T22:25:33.769Z,100974.56
2023-05-11T22:28:01.776Z,100988.34
2023-05-11T22:30:29.667Z,100980.19
2023-05-11T22:32:58.106Z,100981.00
2023-05-11T22:35:26.192Z,100988.34
2023-05-11T22:37:55.507Z,100982.91
2023-05-11T22:40:23.446Z,100979.34
2023-05-11T22:42:51.348Z,100975.78
2023-05-11T22:45:19.263Z,100974.09
2023-05-11T22:47:47.209Z,100974.94
2023-05-11T22:50:15.160Z,100976.63
2023-05-11T22:52:43.069Z,100979.53
2023-05-11T22:55:12.516Z,100981.22
2023-05-11T22:57:40.390Z,100980.38
2023-05-11T23:00:12.428Z,100979.53
2023-05-11T23:02:40.421Z,100980.38
2023-05-11T23:05:09.297Z,100952.00
2023-05-11T23:07:37.218Z,100970.34
2023-05-11T23:10:05.437Z,100964.06
2023-05-11T23:12:34.735Z,100973.06
2023-05-11T23:15:03.054Z,100935.72
2023-05-11T23:17:31.180Z,100963.22
2023-05-11T23:19:59.331Z,100959.69
2023-05-11T23:22:27.208Z,100965.16
2023-05-11T23:24:56.625Z,100953.44
2023-05-11T23:27:24.564Z,100962.41
2023-05-11T23:29:53.924Z,100956.16
2023-05-11T23:32:21.958Z,100954.47
2023-05-11T23:34:50.130Z,100951.75
2023-05-11T23:37:18.052Z,100955.50
2023-05-11T23:39:46.016Z,100951.75
2023-05-11T23:42:14.494Z,100949.03
2023-05-11T23:44:42.718Z,100947.34
2023-05-11T23:47:12.010Z,100946.53
2023-05-11T23:49:39.898Z,100946.53
2023-05-11T23:52:08.040Z,100944.84
2023-05-11T23:54:36.264Z,100929.41
2023-05-11T23:57:04.123Z,100940.25
2023-05-11T23:59:32.055Z,100939.41
